createdAt,value
2019-04-21T00:00:25.826Z,96642.89
2019-04-21T00:02:55.407Z,96635.51
2019-04-21T00:05:49.906Z,96626.20
2019-04-21T00:08:27.798Z,96626.48
2019-04-21T00:10:51.336Z,96624.28
2019-04-21T00:13:12.510Z,96609.52
2019-04-21T00:15:33.551Z,96618.53
2019-04-21T00:18:08.864Z,96604.34
2019-04-21T00:20:44.196Z,96611.99
2019-04-21T00:23:24.250Z,96599.94
2019-04-21T00:25:49.891Z,96594.50
2019-04-21T00:28:30.336Z,96601.87
2019-04-21T00:30:55.504Z,96580.80
2019-04-21T00:33:15.785Z,96594.48
2019-04-21T00:35:45.401Z,96586.01
2019-04-21T00:38:32.153Z,96583.30
2019-04-21T00:41:01.632Z,96585.20
2019-04-21T00:43:28.023Z,96569.63
2019-04-21T00:45:51.925Z,96580.81
2019-04-21T00:48:34.407Z,96572.89
2019-04-21T00:51:18.431Z,96572.63
2019-04-21T00:53:45.133Z,96550.47
2019-04-21T00:56:13.499Z,96580.27
2019-04-21T00:58:42.260Z,96570.99
2019-04-21T01:01:09.026Z,96565.51
2019-04-21T01:03:41.139Z,96565.52
2019-04-21T01:06:09.750Z,96549.40
2019-04-21T01:08:35.673Z,96568.52
2019-04-21T01:11:01.472Z,96564.44
2019-04-21T01:13:42.602Z,96556.22
2019-04-21T01:16:14.117Z,96567.42
2019-04-21T01:18:39.441Z,96552.68
2019-04-21T01:20:49.711Z,96551.57
2019-04-21T01:23:19.221Z,96539.27
2019-04-21T01:26:00.812Z,96537.65
2019-04-21T01:28:36.245Z,96542.55
2019-04-21T01:31:08.783Z,96536.55
2019-04-21T01:36:11.353Z,96539.00
2019-04-21T01:38:40.252Z,96516.05
2019-04-21T01:41:16.164Z,96522.05
2019-04-21T01:43:39.446Z,96529.19
2019-04-21T01:46:09.295Z,96517.69
2019-04-21T01:48:36.772Z,96524.53
2019-04-21T01:51:07.575Z,96520.70
2019-04-21T01:53:48.606Z,96520.98
2019-04-21T01:56:29.257Z,96528.62
2019-04-21T01:58:46.293Z,96523.72
2019-04-21T02:01:28.444Z,96513.03
2019-04-21T02:03:58.397Z,96516.32
2019-04-21T02:06:27.589Z,96517.96
2019-04-21T02:09:02.225Z,96525.61
2019-04-21T02:11:31.041Z,96517.97
2019-04-21T02:14:05.966Z,96506.73
2019-04-21T02:16:32.752Z,96493.04
2019-04-21T02:18:56.776Z,96503.98
2019-04-21T02:21:24.031Z,96502.91
2019-04-21T02:24:05.353Z,96496.87
2019-04-21T02:26:33.595Z,96511.91
2019-04-21T02:29:03.283Z,96496.61
2019-04-21T02:34:09.130Z,96501.25
2019-04-21T02:37:14.392Z,96491.69
2019-04-21T02:39:16.454Z,96498.53
2019-04-21T02:41:55.866Z,96490.86
2019-04-21T02:44:30.000Z,96481.56
2019-04-21T02:46:46.682Z,96499.05
2019-04-21T02:49:38.162Z,96477.44
2019-04-21T02:54:45.886Z,96478.27
2019-04-21T02:56:51.494Z,96474.73
2019-04-21T02:59:24.321Z,96471.19
2019-04-21T03:02:17.097Z,96467.36
2019-04-21T03:10:09.484Z,96473.09
2019-04-21T03:14:56.025Z,96460.50
2019-04-21T03:17:22.329Z,96460.52
2019-04-21T03:22:20.828Z,96461.34
2019-04-21T03:25:04.646Z,96451.50
2019-04-21T03:29:54.380Z,96455.58
2019-04-21T03:32:50.599Z,96451.77
2019-04-21T03:37:23.291Z,96437.02
2019-04-21T03:39:51.835Z,96444.94
2019-04-21T03:49:56.354Z,96451.20
2019-04-21T03:52:36.104Z,96444.64
2019-04-21T03:55:41.421Z,96439.15
2019-04-21T04:00:33.609Z,96434.73
2019-04-21T04:03:07.592Z,96436.96
2019-04-21T04:08:44.751Z,96421.64
2019-04-21T04:11:19.595Z,96425.47
2019-04-21T04:13:37.699Z,96431.49
2019-04-21T04:18:46.187Z,96424.34
2019-04-21T04:21:12.214Z,96443.49
2019-04-21T04:31:06.139Z,96406.60
2019-04-21T04:36:15.584Z,96425.75
2019-04-21T04:38:41.662Z,96426.84
2019-04-21T04:41:15.903Z,96432.03
2019-04-21T04:43:36.289Z,96417.58
2019-04-21T04:48:34.909Z,96432.06
2019-04-21T04:53:47.397Z,96428.27
2019-04-21T04:56:12.338Z,96437.55
2019-04-21T04:58:59.508Z,96419.81
2019-04-21T05:01:24.578Z,96421.67
2019-04-21T05:11:44.523Z,96421.42
2019-04-21T05:14:03.355Z,96429.88
2019-04-21T05:16:36.637Z,96417.58
2019-04-21T05:19:04.160Z,96413.47
2019-04-21T05:21:29.965Z,96418.70
2019-04-21T05:23:44.084Z,96429.08
2019-04-21T05:26:09.899Z,96432.12
2019-04-21T05:28:42.064Z,96426.10
2019-04-21T05:31:25.447Z,96406.96
2019-04-21T05:33:59.069Z,96427.47
2019-04-21T05:36:30.916Z,96419.52
2019-04-21T05:39:12.024Z,96415.69
2019-04-21T05:41:34.841Z,96418.67
2019-04-21T05:44:19.277Z,96428.78
2019-04-21T05:47:04.885Z,96422.47
2019-04-21T05:49:14.102Z,96415.05
2019-04-21T05:51:57.431Z,96413.64
2019-04-21T05:54:39.051Z,96414.22
2019-04-21T05:56:59.763Z,96430.36
2019-04-21T05:59:32.309Z,96423.48
2019-04-21T06:02:13.970Z,96410.08
2019-04-21T06:04:48.119Z,96409.77
2019-04-21T06:07:13.299Z,96416.33
2019-04-21T06:09:38.155Z,96419.88
2019-04-21T06:12:10.083Z,96403.98
2019-04-21T06:14:45.290Z,96422.08
2019-04-21T06:17:17.502Z,96404.52
2019-04-21T06:19:45.039Z,96418.20
2019-04-21T06:22:10.444Z,96404.79
2019-04-21T06:24:45.577Z,96400.41
2019-04-21T06:27:13.428Z,96417.60
2019-04-21T06:29:36.464Z,96412.13
2019-04-21T06:35:04.442Z,96421.98
2019-04-21T06:37:34.816Z,96415.92
2019-04-21T06:39:51.601Z,96400.91
2019-04-21T06:42:09.149Z,96392.70
2019-04-21T06:44:48.452Z,96396.70
2019-04-21T06:47:17.647Z,96392.59
2019-04-21T06:49:36.945Z,96398.07
2019-04-21T06:52:29.907Z,96406.50
2019-04-21T06:55:03.546Z,96385.67
2019-04-21T06:57:16.933Z,96393.83
2019-04-21T06:59:39.050Z,96404.80
2019-04-21T07:02:32.132Z,96402.06
2019-04-21T07:04:43.384Z,96399.86
2019-04-21T07:07:14.525Z,96397.67
2019-04-21T07:09:48.281Z,96403.98
2019-04-21T07:12:13.785Z,96410.80
2019-04-21T07:14:44.090Z,96401.20
2019-04-21T07:17:19.919Z,96392.11
2019-04-21T07:19:49.899Z,96388.55
2019-04-21T07:22:19.578Z,96392.91
2019-04-21T07:24:43.349Z,96387.64
2019-04-21T07:27:17.476Z,96404.41
2019-04-21T07:29:47.511Z,96382.52
2019-04-21T07:32:15.329Z,96393.94
2019-04-21T07:34:47.634Z,96385.70
2019-04-21T07:37:13.934Z,96385.98
2019-04-21T07:39:45.158Z,96393.33
2019-04-21T07:42:13.284Z,96387.57
2019-04-21T07:44:40.832Z,96395.23
2019-04-21T07:47:17.075Z,96381.52
2019-04-21T07:49:53.076Z,96387.48
2019-04-21T07:52:28.243Z,96378.64
2019-04-21T07:55:07.991Z,96388.61
2019-04-21T07:57:18.748Z,96385.43
2019-04-21T08:00:09.857Z,96378.77
2019-04-21T08:02:27.588Z,96385.23
2019-04-21T08:05:02.656Z,96378.01
2019-04-21T08:07:38.285Z,96398.97
2019-04-21T08:09:51.481Z,96373.14
2019-04-21T08:12:20.068Z,96388.77
2019-04-21T08:15:03.172Z,96375.31
2019-04-21T08:17:23.466Z,96379.93
2019-04-21T08:19:57.716Z,96382.56
2019-04-21T08:22:35.135Z,96381.44
2019-04-21T08:24:56.157Z,96376.78
2019-04-21T08:27:35.424Z,96378.58
2019-04-21T08:29:58.284Z,96377.88
2019-04-21T08:32:38.468Z,96383.48
2019-04-21T08:35:22.446Z,96380.81
2019-04-21T08:37:31.273Z,96370.72
2019-04-21T08:40:23.444Z,96366.47
2019-04-21T08:42:30.450Z,96375.13
2019-04-21T08:45:05.613Z,96375.23
2019-04-21T08:47:33.077Z,96384.39
2019-04-21T08:50:00.695Z,96372.58
2019-04-21T08:52:50.977Z,96368.44
2019-04-21T08:55:12.466Z,96359.56
2019-04-21T08:58:15.218Z,96367.22
2019-04-21T09:00:41.399Z,96367.22
2019-04-21T09:03:06.775Z,96354.28
2019-04-21T09:05:40.379Z,96347.93
2019-04-21T09:08:12.857Z,96347.11
2019-04-21T09:10:44.433Z,96349.30
2019-04-21T09:13:04.300Z,96349.30
2019-04-21T09:15:34.994Z,96342.37
2019-04-21T09:18:05.364Z,96354.64
2019-04-21T09:20:47.093Z,96341.46
2019-04-21T09:23:06.407Z,96350.17
2019-04-21T09:25:58.769Z,96342.58
2019-04-21T09:28:04.019Z,96342.58
2019-04-21T09:30:23.978Z,96338.97
2019-04-21T09:32:56.093Z,96330.19
2019-04-21T09:35:24.093Z,96335.93
2019-04-21T09:38:00.568Z,96345.98
2019-04-21T09:40:31.331Z,96326.36
2019-04-21T09:42:59.473Z,96327.58
2019-04-21T09:45:24.451Z,96336.17
2019-04-21T09:48:01.683Z,96323.14
2019-04-21T09:50:24.294Z,96329.51
2019-04-21T09:52:57.885Z,96317.68
2019-04-21T09:55:26.579Z,96324.10
2019-04-21T09:57:56.997Z,96319.39
2019-04-21T10:00:27.199Z,96317.96
2019-04-21T10:03:00.583Z,96314.70
2019-04-21T10:05:25.167Z,96319.20
2019-04-21T10:07:55.146Z,96316.36
2019-04-21T10:10:25.174Z,96314.45
2019-04-21T10:12:54.003Z,96313.78
2019-04-21T10:15:24.845Z,96312.43
2019-04-21T10:18:06.386Z,96312.43
2019-04-21T10:20:36.064Z,96306.31
2019-04-21T10:23:05.068Z,96306.31
2019-04-21T10:25:34.554Z,96300.36
2019-04-21T10:28:03.348Z,96296.17
2019-04-21T10:30:32.927Z,96295.86
2019-04-21T10:33:01.576Z,96297.91
2019-04-21T10:35:31.039Z,96299.65
2019-04-21T10:38:13.654Z,96290.03
2019-04-21T10:40:32.594Z,96278.19
2019-04-21T10:43:01.133Z,96278.97
2019-04-21T10:45:30.833Z,96281.95
2019-04-21T10:48:00.834Z,96277.73
2019-04-21T10:50:29.672Z,96284.20
2019-04-21T10:53:03.004Z,96270.66
2019-04-21T10:55:53.280Z,96274.86
2019-04-21T10:58:16.300Z,96271.93
2019-04-21T11:00:46.500Z,96272.63
2019-04-21T11:03:35.275Z,96261.67
2019-04-21T11:06:08.632Z,96275.82
2019-04-21T11:08:43.346Z,96268.84
2019-04-21T11:11:08.263Z,96258.64
2019-04-21T11:13:37.058Z,96253.92
2019-04-21T11:16:05.776Z,96260.19
2019-04-21T11:18:35.744Z,96257.13
2019-04-21T11:21:04.942Z,96255.28
2019-04-21T11:23:33.587Z,96249.31
2019-04-21T11:26:02.337Z,96240.86
2019-04-21T11:28:31.214Z,96244.00
2019-04-21T11:31:00.554Z,96247.17
2019-04-21T11:33:29.316Z,96254.88
2019-04-21T11:35:59.090Z,96243.05
2019-04-21T11:38:35.513Z,96254.41
2019-04-21T11:41:03.476Z,96248.33
2019-04-21T11:43:32.896Z,96231.62
2019-04-21T11:46:02.598Z,96226.56
2019-04-21T11:48:32.393Z,96232.57
2019-04-21T11:51:01.406Z,96222.53
2019-04-21T11:53:30.744Z,96219.30
2019-04-21T11:56:00.781Z,96218.86
2019-04-21T11:58:29.856Z,96210.25
2019-04-21T12:01:00.326Z,96210.14
2019-04-21T12:03:29.471Z,96214.96
2019-04-21T12:05:59.461Z,96219.30
2019-04-21T12:08:35.097Z,96225.32
2019-04-21T12:10:59.761Z,96224.75
2019-04-21T12:13:29.920Z,96221.64
2019-04-21T12:15:59.026Z,96227.64
2019-04-21T12:18:29.732Z,96228.34
2019-04-21T12:20:57.955Z,96231.72
2019-04-21T12:23:26.873Z,96230.45
2019-04-21T12:25:56.838Z,96224.32
2019-04-21T12:28:25.871Z,96226.38
2019-04-21T12:30:55.801Z,96225.07
2019-04-21T12:33:38.196Z,96210.57
2019-04-21T12:36:07.127Z,96203.98
2019-04-21T12:38:44.720Z,96204.48
2019-04-21T12:41:06.613Z,96192.70
2019-04-21T12:43:35.163Z,96190.26
2019-04-21T12:46:04.319Z,96203.11
2019-04-21T12:48:33.772Z,96183.77
2019-04-21T12:51:03.770Z,96192.94
2019-04-21T12:53:33.835Z,96191.37
2019-04-21T12:56:02.509Z,96188.28
2019-04-21T12:58:31.190Z,96193.22
2019-04-21T13:03:28.705Z,96183.86
2019-04-21T13:05:58.014Z,96174.07
2019-04-21T13:08:27.149Z,96166.19
2019-04-21T13:10:56.135Z,96164.94
2019-04-21T13:13:26.034Z,96167.03
2019-04-21T13:15:55.774Z,96166.64
2019-04-21T13:18:24.326Z,96171.46
2019-04-21T13:20:54.029Z,96166.62
2019-04-21T13:23:23.080Z,96161.61
2019-04-21T13:25:52.044Z,96163.00
2019-04-21T13:28:20.801Z,96166.22
2019-04-21T13:30:50.645Z,96160.15
2019-04-21T13:33:20.884Z,96151.91
2019-04-21T13:35:50.903Z,96148.21
2019-04-21T13:38:29.374Z,96163.62
2019-04-21T13:41:15.017Z,96151.28
2019-04-21T13:43:27.494Z,96152.41
2019-04-21T13:45:57.388Z,96144.30
2019-04-21T13:48:26.492Z,96136.41
2019-04-21T13:50:55.376Z,96142.68
2019-04-21T13:53:24.999Z,96136.66
2019-04-21T13:55:53.540Z,96132.20
2019-04-21T13:58:22.171Z,96128.63
2019-04-21T14:00:52.393Z,96127.49
2019-04-21T14:03:23.066Z,96128.69
2019-04-21T14:05:51.299Z,96118.75
2019-04-21T14:08:21.054Z,96126.03
2019-04-21T14:10:49.622Z,96113.45
2019-04-21T14:13:18.507Z,96119.23
2019-04-21T14:15:49.743Z,96116.38
2019-04-21T14:18:18.506Z,96107.70
2019-04-21T14:20:47.097Z,96104.31
2019-04-21T14:23:25.528Z,96098.80
2019-04-21T14:25:46.245Z,96098.69
2019-04-21T14:28:15.630Z,96099.78
2019-04-21T14:30:44.540Z,96088.53
2019-04-21T14:33:14.184Z,96085.59
2019-04-21T14:35:43.032Z,96088.12
2019-04-21T14:38:11.596Z,96072.23
2019-04-21T14:40:40.082Z,96078.45
2019-04-21T14:43:10.151Z,96068.23
2019-04-21T14:45:40.821Z,96060.98
2019-04-21T14:48:23.287Z,96062.56
2019-04-21T14:51:06.538Z,96062.56
2019-04-21T14:53:53.948Z,96053.45
2019-04-21T14:56:22.493Z,96056.83
2019-04-21T14:58:51.233Z,96052.93
2019-04-21T15:01:19.896Z,96045.55
2019-04-21T15:03:49.923Z,96035.91
2019-04-21T15:06:19.025Z,96029.73
2019-04-21T15:08:49.081Z,96028.35
2019-04-21T15:11:18.053Z,96021.36
2019-04-21T15:13:47.998Z,96020.02
2019-04-21T15:16:16.611Z,96022.42
2019-04-21T15:18:46.457Z,96024.61
2019-04-21T15:21:15.338Z,96022.59
2019-04-21T15:23:44.661Z,96017.63
2019-04-21T15:26:14.354Z,96016.42
2019-04-21T15:28:42.860Z,96010.23
2019-04-21T15:31:12.706Z,96009.44
2019-04-21T15:33:41.657Z,96004.16
2019-04-21T15:36:11.263Z,96008.89
2019-04-21T15:38:40.189Z,96003.41
2019-04-21T15:41:10.701Z,96001.19
2019-04-21T15:43:38.898Z,96005.73
2019-04-21T15:46:08.757Z,95997.78
2019-04-21T15:48:37.376Z,95994.59
2019-04-21T15:51:08.646Z,95992.34
2019-04-21T15:53:37.937Z,95989.61
2019-04-21T15:56:11.265Z,95993.70
2019-04-21T15:58:42.812Z,95987.51
2019-04-21T16:01:18.823Z,95991.62
2019-04-21T16:03:47.371Z,95983.76
2019-04-21T16:06:17.371Z,95985.77
2019-04-21T16:08:47.639Z,95980.98
2019-04-21T16:11:16.103Z,95977.41
2019-04-21T16:13:45.959Z,95970.23
2019-04-21T16:16:14.720Z,95971.20
2019-04-21T16:18:43.254Z,95965.31
2019-04-21T16:21:11.879Z,95965.56
2019-04-21T16:23:40.579Z,95963.49
2019-04-21T16:26:10.768Z,95961.14
2019-04-21T16:28:39.635Z,95953.34
2019-04-21T16:31:08.112Z,95946.69
2019-04-21T16:33:36.889Z,95952.59
2019-04-21T16:36:08.210Z,95945.61
2019-04-21T16:38:35.785Z,95939.66
2019-04-21T16:41:08.152Z,95941.79
2019-04-21T16:43:35.419Z,95939.09
2019-04-21T16:46:04.659Z,95938.43
2019-04-21T16:48:33.755Z,95932.48
2019-04-21T16:51:03.583Z,95927.48
2019-04-21T16:53:39.826Z,95926.61
2019-04-21T16:56:15.486Z,95920.80
2019-04-21T16:58:48.487Z,95916.80
2019-04-21T17:01:29.588Z,95905.63
2019-04-21T17:03:58.278Z,95913.94
2019-04-21T17:06:27.171Z,95907.27
2019-04-21T17:08:56.777Z,95907.27
2019-04-21T17:11:30.387Z,95908.89
2019-04-21T17:13:56.687Z,95902.88
2019-04-21T17:17:03.837Z,95902.63
2019-04-21T17:19:05.311Z,95907.16
2019-04-21T17:21:28.146Z,95907.16
2019-04-21T17:23:56.905Z,95907.77
2019-04-21T17:26:26.806Z,95907.46
2019-04-21T17:28:56.602Z,95907.46
2019-04-21T17:31:26.529Z,95889.39
2019-04-21T17:34:02.012Z,95891.02
2019-04-21T17:36:25.420Z,95896.62
2019-04-21T17:38:54.305Z,95896.62
2019-04-21T17:41:32.693Z,95896.45
2019-04-21T17:43:54.429Z,95896.45
2019-04-21T17:46:34.519Z,95893.69
2019-04-21T17:48:53.157Z,95895.88
2019-04-21T17:51:32.082Z,95892.37
2019-04-21T17:54:13.631Z,95892.37
2019-04-21T17:56:59.495Z,95895.86
2019-04-21T17:59:41.580Z,95896.50
2019-04-21T18:01:53.401Z,95891.92
2019-04-21T18:04:28.953Z,95899.22
2019-04-21T18:06:58.174Z,95890.48
2019-04-21T18:09:44.055Z,95900.64
2019-04-21T18:12:05.526Z,95895.28
2019-04-21T18:14:18.986Z,95901.55
2019-04-21T18:16:48.661Z,95897.53
2019-04-21T18:19:20.567Z,95903.11
2019-04-21T18:22:03.882Z,95910.10
2019-04-21T18:24:40.616Z,95900.80
2019-04-21T18:27:06.001Z,95906.08
2019-04-21T18:29:33.931Z,95906.10
2019-04-21T18:32:02.837Z,95913.94
2019-04-21T18:34:44.291Z,95912.61
2019-04-21T18:37:14.739Z,95903.73
2019-04-21T18:40:00.056Z,95915.49
2019-04-21T18:42:37.529Z,95921.61
2019-04-21T18:45:38.736Z,95928.00
2019-04-21T18:47:58.499Z,95927.55
2019-04-21T18:50:16.406Z,95917.73
2019-04-21T18:53:02.029Z,95918.63
2019-04-21T18:55:27.867Z,95914.95
2019-04-21T18:57:50.956Z,95917.95
2019-04-21T19:00:24.351Z,95917.14
2019-04-21T19:02:52.386Z,95913.77
2019-04-21T19:05:22.631Z,95923.23
2019-04-21T19:08:05.685Z,95914.23
2019-04-21T19:10:45.710Z,95916.78
2019-04-21T19:13:28.237Z,95914.74
2019-04-21T19:15:42.543Z,95908.52
2019-04-21T19:18:32.528Z,95915.55
2019-04-21T19:20:39.405Z,95915.97
2019-04-21T19:23:12.562Z,95908.70
2019-04-21T19:25:41.360Z,95913.30
2019-04-21T19:28:06.490Z,95903.55
2019-04-21T19:30:50.702Z,95906.33
2019-04-21T19:33:10.118Z,95917.34
2019-04-21T19:35:27.564Z,95908.44
2019-04-21T19:38:01.170Z,95919.00
2019-04-21T19:40:41.421Z,95915.37
2019-04-21T19:43:07.005Z,95912.34
2019-04-21T19:45:38.070Z,95923.26
2019-04-21T19:48:12.211Z,95918.11
2019-04-21T19:50:47.079Z,95911.69
2019-04-21T19:53:06.237Z,95918.95
2019-04-21T19:55:28.306Z,95910.84
2019-04-21T19:57:56.827Z,95901.02
2019-04-21T20:00:26.592Z,95908.62
2019-04-21T20:02:56.354Z,95905.66
2019-04-21T20:05:35.266Z,95902.36
2019-04-21T20:08:12.916Z,95912.05
2019-04-21T20:10:44.330Z,95915.22
2019-04-21T20:13:28.367Z,95911.66
2019-04-21T20:15:44.779Z,95914.11
2019-04-21T20:18:10.107Z,95911.87
2019-04-21T20:20:26.968Z,95921.64
2019-04-21T20:22:57.154Z,95911.27
2019-04-21T20:25:27.292Z,95908.89
2019-04-21T20:28:05.465Z,95908.11
2019-04-21T20:30:42.316Z,95897.60
2019-04-21T20:33:39.744Z,95909.19
2019-04-21T20:35:52.063Z,95907.59
2019-04-21T20:38:13.888Z,95905.41
2019-04-21T20:40:36.267Z,95906.06
2019-04-21T20:43:17.717Z,95906.74
2019-04-21T20:45:46.877Z,95893.11
2019-04-21T20:48:07.235Z,95906.45
2019-04-21T20:50:43.483Z,95892.52
2019-04-21T20:53:17.626Z,95883.83
2019-04-21T20:55:44.176Z,95883.95
2019-04-21T20:58:09.193Z,95897.23
2019-04-21T21:00:55.843Z,95883.34
2019-04-21T21:03:23.158Z,95888.38
2019-04-21T21:05:45.006Z,95880.12
2019-04-21T21:08:25.934Z,95895.13
2019-04-21T21:10:49.252Z,95886.71
2019-04-21T21:13:26.616Z,95886.48
2019-04-21T21:16:01.189Z,95890.33
2019-04-21T21:18:38.529Z,95885.48
2019-04-21T21:20:49.409Z,95886.52
2019-04-21T21:23:15.879Z,95880.19
2019-04-21T21:25:50.949Z,95885.77
2019-04-21T21:28:10.123Z,95881.14
2019-04-21T21:30:43.154Z,95890.41
2019-04-21T21:33:22.501Z,95881.86
2019-04-21T21:35:42.478Z,95887.70
2019-04-21T21:38:28.101Z,95892.09
2019-04-21T21:40:49.633Z,95885.35
2019-04-21T21:43:08.145Z,95898.23
2019-04-21T21:45:42.527Z,95883.20
2019-04-21T21:48:21.939Z,95891.67
2019-04-21T21:50:47.010Z,95897.19
2019-04-21T21:53:13.540Z,95895.09
2019-04-21T21:55:38.607Z,95906.13
2019-04-21T21:58:08.496Z,95900.19
2019-04-21T22:00:42.948Z,95909.66
2019-04-21T22:03:18.848Z,95897.62
2019-04-21T22:05:47.546Z,95906.75
2019-04-21T22:08:10.164Z,95901.27
2019-04-21T22:10:39.180Z,95912.22
2019-04-21T22:13:12.813Z,95907.50
2019-04-21T22:15:39.529Z,95900.42
2019-04-21T22:18:25.910Z,95896.72
2019-04-21T22:20:55.090Z,95901.70
2019-04-21T22:23:13.345Z,95890.95
2019-04-21T22:25:41.771Z,95902.80
2019-04-21T22:28:09.660Z,95890.91
2019-04-21T22:30:42.723Z,95893.94
2019-04-21T22:33:12.342Z,95890.73
2019-04-21T22:35:48.895Z,95887.00
2019-04-21T22:38:25.675Z,95893.84
2019-04-21T22:40:50.635Z,95880.47
2019-04-21T22:43:19.483Z,95884.66
2019-04-21T22:45:41.097Z,95876.02
2019-04-21T22:48:15.564Z,95870.66
2019-04-21T22:50:40.683Z,95868.23
2019-04-21T22:53:10.607Z,95879.67
2019-04-21T22:55:40.850Z,95870.05
2019-04-21T22:58:09.683Z,95870.34
2019-04-21T23:00:44.668Z,95856.72
2019-04-21T23:03:13.620Z,95871.52
2019-04-21T23:05:41.715Z,95858.64
2019-04-21T23:08:10.933Z,95862.11
2019-04-21T23:10:41.470Z,95860.91
2019-04-21T23:13:15.673Z,95863.16
2019-04-21T23:15:46.157Z,95854.86
2019-04-21T23:18:25.948Z,95853.75
2019-04-21T23:20:57.758Z,95856.83
2019-04-21T23:23:29.690Z,95840.66
2019-04-21T23:25:56.045Z,95849.15
2019-04-21T23:28:30.424Z,95845.44
2019-04-21T23:31:05.600Z,95841.68
2019-04-21T23:33:15.735Z,95846.09
2019-04-21T23:35:45.646Z,95824.80
2019-04-21T23:38:12.917Z,95825.22
2019-04-21T23:40:51.167Z,95821.86
2019-04-21T23:43:18.763Z,95824.77
2019-04-21T23:45:44.832Z,95822.41
2019-04-21T23:48:27.140Z,95835.12
2019-04-21T23:50:51.369Z,95817.64
2019-04-21T23:53:13.757Z,95818.38
2019-04-21T23:55:43.375Z,95824.20
2019-04-21T23:58:18.688Z,95829.39
